Time;durP1;ratioP1;P1;durP2;ratioP2;P2;SDS_P1;SDS_P2;PMS_P1;PMS_P2;Temp;Humidity;BMP_temperature;BMP_pressure;BME280_temperature;BME280_humidity;BME280_pressure;Samples;Min_cycle;Max_cycle;Signal;HPM_P1;HPM_P2
2021/11/17 02:27:33;;;;;;;73.45;29.08;;;;;;;5.65;100.00;98209.06;4993187;28;20059;-86
2021/11/17 02:30:20;;;;;;;80.75;29.95;;;;;;;5.61;100.00;98213.59;5043832;28;20033;-89
2021/11/17 02:33:09;;;;;;;69.90;28.10;;;;;;;5.60;100.00;98203.88;5035495;28;20037;-88
2021/11/17 02:36:00;;;;;;;70.70;29.85;;;;;;;5.57;100.00;98200.47;5034164;28;20507;-88
2021/11/17 02:38:46;;;;;;;77.47;30.88;;;;;;;5.41;100.00;98189.47;5049771;28;20036;-88
2021/11/17 02:41:36;;;;;;;78.10;30.45;;;;;;;5.50;100.00;98205.09;5035525;28;20030;-88
2021/11/17 02:44:11;;;;;;;72.18;29.60;;;;;;;5.62;100.00;98204.72;5042218;28;20506;-88
2021/11/17 02:47:14;;;;;;;67.00;29.17;;;;;;;5.69;100.00;98206.22;5042309;28;20448;-87
2021/11/17 02:50:12;;;;;;;72.85;29.65;;;;;;;5.67;100.00;98202.78;5036927;28;20103;-88
2021/11/17 02:53:16;;;;;;;74.28;30.00;;;;;;;5.69;100.00;98200.94;5016470;28;20071;-87
2021/11/17 02:56:16;;;;;;;70.78;29.27;;;;;;;5.65;100.00;98164.81;5017734;28;20024;-86
2021/11/17 02:59:12;;;;;;;63.90;28.45;;;;;;;5.70;100.00;98188.53;5050619;28;20029;-87
2021/11/17 03:02:06;;;;;;;83.00;29.77;;;;;;;5.80;100.00;98187.31;4994472;28;20021;-86
2021/11/17 03:04:45;;;;;;;74.03;28.17;;;;;;;5.72;100.00;98186.72;5019572;28;20037;-86
2021/11/17 03:07:49;;;;;;;73.68;29.50;;;;;;;5.86;100.00;98193.34;5029279;28;20496;-88
2021/11/17 03:10:49;;;;;;;65.97;29.15;;;;;;;5.90;100.00;98189.66;5027306;28;20047;-88
2021/11/17 03:13:40;;;;;;;68.40;29.13;;;;;;;5.81;100.00;98189.06;5028672;28;20025;-88
2021/11/17 03:16:11;;;;;;;65.93;28.05;;;;;;;5.84;100.00;98191.63;5055816;28;20491;-88
2021/11/17 03:18:56;;;;;;;65.30;28.00;;;;;;;5.83;100.00;98180.13;5041973;28;20045;-89
2021/11/17 03:21:56;;;;;;;64.97;27.70;;;;;;;5.88;100.00;98190.63;5053009;28;20272;-88
2021/11/17 03:24:32;;;;;;;70.88;27.25;;;;;;;5.89;100.00;98195.00;5013139;28;20098;-87
2021/11/17 03:27:13;;;;;;;65.57;26.75;;;;;;;5.94;100.00;98193.94;5028925;28;20036;-87
2021/11/17 03:30:13;;;;;;;75.70;36.90;;;;;;;5.88;100.00;98183.53;5039188;28;20094;-87
2021/11/17 03:32:57;;;;;;;69.13;29.88;;;;;;;5.90;100.00;98194.09;5018472;28;20412;-87
2021/11/17 03:35:38;;;;;;;72.90;29.73;;;;;;;5.93;100.00;98188.69;5047298;28;20036;-87
2021/11/17 03:38:33;;;;;;;74.32;30.08;;;;;;;5.91;100.00;98196.69;5047518;28;20503;-87
2021/11/17 03:41:01;;;;;;;77.57;29.85;;;;;;;5.97;100.00;98190.31;5053001;28;20507;-86
2021/11/17 03:43:33;;;;;;;75.32;32.17;;;;;;;5.96;100.00;98189.47;5035741;28;20032;-87
2021/11/17 03:46:29;;;;;;;77.47;32.08;;;;;;;5.86;100.00;98182.72;5052249;28;20050;-86
2021/11/17 03:49:23;;;;;;;78.93;31.02;;;;;;;5.94;100.00;98182.44;5038146;28;20103;-88
2021/11/17 03:52:05;;;;;;;71.10;29.70;;;;;;;5.86;100.00;98169.44;5036628;28;20033;-86
2021/11/17 03:54:36;;;;;;;80.82;30.38;;;;;;;5.92;100.00;98179.84;5019430;28;20094;-87
2021/11/17 03:57:35;;;;;;;81.07;30.10;;;;;;;5.86;100.00;98174.75;5043676;28;20119;-89
2021/11/17 04:00:33;;;;;;;74.90;28.85;;;;;;;5.95;100.00;98179.75;5046621;28;20035;-88
2021/11/17 04:03:24;;;;;;;73.80;29.33;;;;;;;5.97;100.00;98177.91;5007897;28;20508;-88
2021/11/17 04:05:56;;;;;;;77.43;28.67;;;;;;;5.95;100.00;98193.03;5036521;28;20037;-86
2021/11/17 04:08:36;;;;;;;80.40;31.17;;;;;;;5.99;100.00;98183.19;5049193;28;20032;-88
2021/11/17 04:11:30;;;;;;;74.55;29.40;;;;;;;6.01;100.00;98176.03;5041102;28;20040;-86
2021/11/17 04:14:41;;;;;;;82.75;30.67;;;;;;;5.85;100.00;98161.47;5054507;28;20040;-88
2021/11/17 04:17:45;;;;;;;77.05;30.70;;;;;;;5.99;100.00;98177.88;5019164;28;20037;-87
2021/11/17 04:20:58;;;;;;;75.63;33.20;;;;;;;6.00;100.00;98175.16;5002996;28;20048;-88
2021/11/17 04:23:42;;;;;;;;;;;;;;;6.02;100.00;98183.06;4968051;28;20181;-87
2021/11/17 04:26:18;;;;;;;66.82;30.10;;;;;;;5.98;100.00;98179.66;5010130;28;19913;-87
2021/11/17 04:29:09;;;;;;;75.95;31.92;;;;;;;5.92;100.00;98165.72;5045576;28;20052;-89
2021/11/17 04:31:53;;;;;;;72.95;32.85;;;;;;;5.90;100.00;98175.53;5005799;28;20022;-88
2021/11/17 04:34:40;;;;;;;81.07;33.75;;;;;;;5.94;100.00;98185.09;5036683;28;20035;-89
2021/11/17 04:37:09;;;;;;;83.40;36.05;;;;;;;6.03;100.00;98174.16;5036615;28;20044;-89
2021/11/17 04:40:12;;;;;;;83.10;34.60;;;;;;;6.05;100.00;98182.97;5035857;28;20029;-89
2021/11/17 04:42:50;;;;;;;;;;;;;;;6.05;100.00;98182.97;5038230;28;20519;-89
2021/11/17 04:45:21;;;;;;;80.28;34.65;;;;;;;6.07;100.00;98183.78;5019203;28;19913;-88
2021/11/17 04:48:07;;;;;;;93.87;42.50;;;;;;;5.96;100.00;98186.81;5019906;28;20029;-89
2021/11/17 04:51:00;;;;;;;91.38;37.83;;;;;;;5.99;100.00;98184.06;5036933;28;20021;-87
2021/11/17 04:53:46;;;;;;;85.82;35.80;;;;;;;6.01;100.00;98176.03;5023210;28;20531;-89
2021/11/17 04:56:30;;;;;;;82.18;34.47;;;;;;;5.96;100.00;98189.47;4983862;28;20037;-89
2021/11/17 04:59:21;;;;;;;80.47;32.47;;;;;;;5.98;100.00;98192.06;4988829;28;20052;-89
2021/11/17 05:02:12;;;;;;;78.53;33.60;;;;;;;5.72;100.00;98142.44;5000797;28;20109;-87
2021/11/17 05:04:47;;;;;;;93.25;35.95;;;;;;;5.98;100.00;98187.63;4985706;28;20446;-88
2021/11/17 05:07:42;;;;;;;89.05;35.78;;;;;;;5.80;100.00;98151.03;4984075;28;20068;-89
2021/11/17 05:10:36;;;;;;;89.50;36.03;;;;;;;6.07;100.00;98186.44;5000440;28;20030;-89
2021/11/17 05:13:23;;;;;;;92.53;35.45;;;;;;;6.09;100.00;98183.75;5034456;28;20567;-88
2021/11/17 05:15:58;;;;;;;88.68;34.55;;;;;;;6.10;100.00;98194.28;5010430;28;20523;-89
2021/11/17 05:18:44;;;;;;;88.07;35.05;;;;;;;6.13;100.00;98188.88;5044960;28;20136;-89
2021/11/17 05:21:17;;;;;;;91.97;34.92;;;;;;;6.11;100.00;98187.19;5035863;28;20039;-89
2021/11/17 05:23:48;;;;;;;;;;;;;;;6.14;100.00;98193.28;5046477;28;20031;-90
2021/11/17 05:26:33;;;;;;;81.57;34.47;;;;;;;6.11;100.00;98187.19;5078681;28;19955;-89
2021/11/17 05:29:17;;;;;;;92.63;39.65;;;;;;;6.10;100.00;98181.03;5041505;28;20056;-89
2021/11/17 05:32:08;;;;;;;94.15;41.35;;;;;;;6.08;100.00;98184.66;5046722;28;20032;-88
2021/11/17 05:35:20;;;;;;;99.45;43.03;;;;;;;6.06;100.00;98167.91;5037701;28;20036;-87
2021/11/17 05:38:13;;;;;;;106.57;47.00;;;;;;;6.18;100.00;98188.75;5024552;28;20033;-88
2021/11/17 05:40:51;;;;;;;87.95;36.30;;;;;;;6.09;100.00;98191.72;5060302;28;20036;-78
2021/11/17 05:43:46;;;;;;;79.38;35.08;;;;;;;6.08;100.00;98187.31;5061424;28;20063;-90
2021/11/17 05:46:47;;;;;;;78.45;33.45;;;;;;;6.08;100.00;98184.66;5020548;28;20052;-85
2021/11/17 05:49:29;;;;;;;83.38;35.60;;;;;;;6.12;100.00;98184.47;5019853;28;20062;-93
2021/11/17 05:52:36;;;;;;;95.82;40.72;;;;;;;6.06;100.00;98187.34;5018785;28;20060;-91
2021/11/17 05:55:27;;;;;;;97.32;42.60;;;;;;;6.13;100.00;98191.53;5009010;28;20407;-90
2021/11/17 05:58:02;;;;;;;95.47;42.95;;;;;;;5.95;100.00;98182.41;5024008;28;20020;-91
2021/11/17 06:01:05;;;;;;;99.93;43.25;;;;;;;6.17;100.00;98205.59;5033531;28;20029;-90
2021/11/17 06:04:06;;;;;;;106.72;45.03;;;;;;;6.14;100.00;98208.34;5031886;28;20036;-92
2021/11/17 06:06:39;;;;;;;116.70;49.30;;;;;;;6.09;100.00;98200.50;5064350;28;20033;-91
2021/11/17 06:09:05;;;;;;;105.97;47.90;;;;;;;5.95;100.00;98198.34;5063924;28;20035;-91
2021/11/17 06:11:58;;;;;;;100.45;44.97;;;;;;;5.90;100.00;98194.09;5061990;28;20137;-91
2021/11/17 06:14:27;;;;;;;104.75;44.63;;;;;;;5.98;100.00;98211.50;5043273;28;20508;-91
2021/11/17 06:20:17;;;;;;;82.15;37.53;;;;;;;6.03;100.00;98211.34;5081425;28;20043;-92
2021/11/17 06:22:46;;;;;;;84.43;36.80;;;;;;;6.15;100.00;98216.28;5050235;28;20070;-93
2021/11/17 06:25:13;;;;;;;95.53;40.20;;;;;;;6.02;100.00;98200.78;5063465;28;20044;-91
2021/11/17 06:27:45;;;;;;;92.40;41.22;;;;;;;6.11;100.00;98211.09;5064247;28;20035;-92
2021/11/17 06:30:13;;;;;;;87.22;38.85;;;;;;;6.06;100.00;98205.09;5087457;28;20506;-90
2021/11/17 06:32:39;;;;;;;111.55;51.15;;;;;;;6.10;100.00;98217.31;5071264;28;20024;-89
2021/11/17 06:35:06;;;;;;;155.43;71.50;;;;;;;6.20;100.00;98213.44;5027984;28;20028;-76
2021/11/17 06:37:31;;;;;;;127.60;57.15;;;;;;;6.29;100.00;98215.78;5069274;28;20059;-93
2021/11/17 06:39:59;;;;;;;88.25;37.90;;;;;;;6.38;100.00;98231.41;5026968;28;20063;-94
2021/11/17 06:42:44;;;;;;;79.28;36.50;;;;;;;6.37;100.00;98206.63;5045997;28;20033;-95
2021/11/17 06:45:14;;;;;;;83.05;36.90;;;;;;;6.33;100.00;98199.72;5041944;28;20017;-89
2021/11/17 06:47:39;;;;;;;82.85;37.83;;;;;;;6.42;100.00;98210.00;5028956;28;20518;-91
2021/11/17 06:50:06;;;;;;;93.40;40.08;;;;;;;6.45;100.00;98211.69;5025307;28;20044;-91
2021/11/17 06:52:31;;;;;;;91.90;41.58;;;;;;;6.54;100.00;98209.59;5041909;28;20072;-75
2021/11/17 06:54:57;;;;;;;95.55;40.70;;;;;;;6.52;100.00;98211.41;5050120;28;20063;-93
2021/11/17 06:57:23;;;;;;;95.18;43.55;;;;;;;6.47;100.00;98215.16;5044013;28;20461;-74
2021/11/17 06:59:48;;;;;;;97.63;44.65;;;;;;;6.51;100.00;98209.69;5037321;28;20035;-93
2021/11/17 07:02:15;;;;;;;122.68;48.95;;;;;;;6.19;100.00;98186.00;5008900;28;20049;-92
2021/11/17 07:04:42;;;;;;;112.68;44.20;;;;;;;6.34;100.00;98192.56;5009525;28;20033;-95
2021/11/17 07:07:14;;;;;;;99.97;41.15;;;;;;;6.32;100.00;98192.66;5009274;28;20036;-92
2021/11/17 07:09:53;;;;;;;97.35;41.25;;;;;;;6.49;100.00;98206.19;5015965;28;20081;-94
2021/11/17 07:12:26;;;;;;;83.55;38.17;;;;;;;6.15;100.00;98146.34;5034949;28;20034;-93
2021/11/17 07:15:08;;;;;;;100.22;38.78;;;;;;;6.41;100.00;98165.75;5035427;28;20057;-94
2021/11/17 07:17:37;;;;;;;99.38;42.30;;;;;;;6.27;100.00;98141.47;5018971;28;20045;-94
2021/11/17 07:20:10;;;;;;;109.55;44.47;;;;;;;6.35;100.00;98159.78;5017611;28;20109;-95
2021/11/17 07:22:38;;;;;;;;;;;;;;;6.65;100.00;98206.53;5016082;28;20049;-93
2021/11/17 07:25:06;;;;;;;100.38;44.22;;;;;;;6.67;100.00;98196.72;5013550;28;19912;-75
2021/11/17 07:27:32;;;;;;;96.03;42.75;;;;;;;6.78;100.00;98199.84;5030222;28;20036;-76
2021/11/17 07:29:58;;;;;;;104.43;48.60;;;;;;;6.75;100.00;98207.06;5014155;28;20056;-76
2021/11/17 07:32:26;;;;;;;112.50;48.28;;;;;;;6.75;100.00;98197.31;5031452;28;20064;-76
2021/11/17 07:34:53;;;;;;;105.03;46.55;;;;;;;6.75;100.00;98201.75;5036633;28;20537;-76
2021/11/17 07:37:19;;;;;;;93.68;39.88;;;;;;;6.72;100.00;98218.69;5011301;28;20028;-77
2021/11/17 07:39:45;;;;;;;84.57;36.97;;;;;;;6.74;100.00;98207.97;5045296;28;20097;-75
2021/11/17 07:42:11;;;;;;;75.28;34.78;;;;;;;6.76;100.00;98204.38;5052079;28;20503;-89
2021/11/17 07:44:37;;;;;;;72.40;34.05;;;;;;;6.92;100.00;98221.47;5025401;28;20118;-76
2021/11/17 07:47:03;;;;;;;74.60;32.70;;;;;;;6.79;100.00;98212.22;5051308;28;20029;-75
2021/11/17 07:49:29;;;;;;;76.28;34.35;;;;;;;6.79;100.00;98217.56;5014043;28;20462;-76
2021/11/17 07:51:56;;;;;;;72.05;31.95;;;;;;;6.84;100.00;98223.56;5025684;28;20029;-76
2021/11/17 07:54:25;;;;;;;70.57;33.25;;;;;;;6.94;100.00;98232.94;5038932;28;20032;-77
2021/11/17 07:56:51;;;;;;;71.50;33.80;;;;;;;6.78;100.00;98223.78;5044456;28;20419;-80
2021/11/17 07:59:23;;;;;;;77.18;35.28;;;;;;;6.83;100.00;98229.78;5017614;28;20039;-82
2021/11/17 08:01:50;;;;;;;97.70;42.53;;;;;;;6.84;100.00;98212.03;5048475;28;20069;-89
2021/11/17 08:04:17;;;;;;;78.82;35.67;;;;;;;6.85;100.00;98221.78;5024437;28;20039;-88
2021/11/17 08:06:43;;;;;;;75.47;37.88;;;;;;;6.96;100.00;98232.88;5031226;28;20090;-89
2021/11/17 08:09:10;;;;;;;77.95;39.53;;;;;;;7.05;100.00;98224.56;5060372;28;20029;-89
2021/11/17 08:11:37;;;;;;;83.07;38.45;;;;;;;7.04;100.00;98218.34;5043228;28;20407;-89
2021/11/17 08:14:03;;;;;;;61.60;29.50;;;;;;;7.20;100.00;98217.81;5059142;28;20059;-88
2021/11/17 08:16:28;;;;;;;63.03;27.63;;;;;;;7.23;100.00;98234.50;5025870;28;20507;-86
2021/11/17 08:18:54;;;;;;;57.30;27.77;;;;;;;7.15;100.00;98217.09;5062370;28;20037;-89
2021/11/17 08:21:20;;;;;;;53.00;26.52;;;;;;;6.98;100.00;98202.63;5025155;28;20052;-89
2021/11/17 08:23:46;;;;;;;60.67;28.15;;;;;;;6.96;100.00;98222.22;5038592;28;20025;-91
2021/11/17 08:26:12;;;;;;;54.45;26.75;;;;;;;6.80;100.00;98187.34;5044575;28;20020;-77
2021/11/17 08:28:39;;;;;;;62.20;29.35;;;;;;;7.31;100.00;98239.56;5035826;28;20028;-76
2021/11/17 08:31:05;;;;;;;60.15;28.50;;;;;;;7.15;100.00;98243.69;5012583;28;20432;-82
2021/11/17 08:33:31;;;;;;;67.43;30.85;;;;;;;7.26;100.00;98233.53;5031857;28;20039;-78
2021/11/17 08:35:57;;;;;;;67.50;30.50;;;;;;;7.19;100.00;98229.38;5023399;28;20029;-77
2021/11/17 08:38:24;;;;;;;66.53;30.92;;;;;;;7.27;100.00;98238.78;5011010;28;20060;-77
2021/11/17 08:40:53;;;;;;;75.68;37.17;;;;;;;7.36;100.00;98234.91;5063860;28;20067;-77
2021/11/17 08:43:20;;;;;;;74.88;33.53;;;;;;;7.49;100.00;98245.03;5015713;28;20335;-78
2021/11/17 08:45:48;;;;;;;76.18;35.10;;;;;;;7.47;100.00;98236.25;5041647;28;20173;-79
2021/11/17 08:48:14;;;;;;;155.10;69.25;;;;;;;7.60;100.00;98237.50;5041376;28;20031;-78
2021/11/17 08:50:40;;;;;;;161.20;69.72;;;;;;;7.61;100.00;98243.69;5036427;28;20033;-78
2021/11/17 08:53:09;;;;;;;90.10;44.65;;;;;;;7.72;100.00;98236.13;5028211;28;20470;-78
2021/11/17 08:55:35;;;;;;;83.20;41.00;;;;;;;7.65;100.00;98240.00;5051460;28;20028;-78
2021/11/17 08:58:02;;;;;;;75.88;37.88;;;;;;;7.80;100.00;98239.38;5067615;28;20476;-77
2021/11/17 09:00:28;;;;;;;84.03;42.00;;;;;;;7.84;100.00;98235.69;5033047;28;20055;-79
2021/11/17 09:02:56;;;;;;;84.75;39.75;;;;;;;7.72;100.00;98230.81;5016419;28;20442;-76
2021/11/17 09:05:34;;;;;;;86.97;40.22;;;;;;;7.82;100.00;98236.63;5042504;28;20029;-77
2021/11/17 09:08:00;;;;;;;85.57;40.72;;;;;;;7.74;100.00;98239.63;5038705;28;20036;-76
2021/11/17 09:10:28;;;;;;;82.43;40.10;;;;;;;7.85;100.00;98232.06;5019112;28;20504;-77
2021/11/17 09:12:54;;;;;;;87.75;41.63;;;;;;;7.83;100.00;98227.75;5032498;28;20036;-76
2021/11/17 09:15:22;;;;;;;89.80;39.35;;;;;;;7.65;100.00;98218.69;5028575;28;20111;-77
2021/11/17 09:17:48;;;;;;;85.45;41.10;;;;;;;7.72;100.00;98236.13;5036964;28;20037;-76
2021/11/17 09:20:18;;;;;;;95.50;42.30;;;;;;;7.65;100.00;98216.03;5032054;28;20045;-77
2021/11/17 09:22:45;;;;;;;90.22;39.83;;;;;;;7.79;100.00;98212.81;5032471;28;20025;-75
2021/11/17 09:25:11;;;;;;;73.18;35.33;;;;;;;7.98;100.00;98222.66;5032499;28;20471;-78
2021/11/17 09:27:38;;;;;;;77.63;37.35;;;;;;;7.92;100.00;98227.38;5029825;28;20090;-76
2021/11/17 09:30:06;;;;;;;85.60;39.33;;;;;;;7.94;100.00;98226.38;5025071;28;20036;-78
2021/11/17 09:32:32;;;;;;;78.10;36.20;;;;;;;8.04;100.00;98219.75;5026141;28;20032;-77
2021/11/17 09:35:10;;;;;;;80.38;37.58;;;;;;;8.18;100.00;98214.69;5034402;28;20036;-77
2021/11/17 09:37:36;;;;;;;85.20;38.78;;;;;;;8.42;100.00;98217.31;5024070;28;20024;-76
2021/11/17 09:40:04;;;;;;;80.47;37.55;;;;;;;8.42;100.00;98217.31;5032130;28;20025;-77
2021/11/17 09:42:30;;;;;;;83.68;38.67;;;;;;;8.18;100.00;98220.03;5036537;28;20020;-77
2021/11/17 09:44:56;;;;;;;80.82;39.05;;;;;;;8.20;100.00;98206.66;5051864;28;20491;-76
2021/11/17 09:47:23;;;;;;;96.72;39.55;;;;;;;8.21;100.00;98207.53;5035758;28;20042;-75
2021/11/17 09:50:19;;;;;;;88.75;41.47;;;;;;;8.29;100.00;98210.75;5056842;28;20485;-76
2021/11/17 09:52:57;;;;;;;92.38;41.92;;;;;;;8.23;100.00;98192.31;5018737;28;20036;-77
2021/11/17 09:55:34;;;;;;;83.32;38.65;;;;;;;8.08;100.00;98199.19;5020199;28;20036;-77
2021/11/17 09:58:15;;;;;;;83.50;40.30;;;;;;;8.24;100.00;98176.28;5013511;28;20035;-76
2021/11/17 10:00:56;;;;;;;88.75;40.72;;;;;;;8.45;100.00;98187.84;5043522;28;20037;-75
2021/11/17 10:03:27;;;;;;;85.68;41.10;;;;;;;8.51;100.00;98188.47;5019823;28;20056;-77
2021/11/17 10:06:29;;;;;;;91.38;41.95;;;;;;;8.68;100.00;98183.25;5034278;28;20082;-87
2021/11/17 10:14:50;;;;;;;117.22;57.42;;;;;;;8.79;100.00;98164.09;5020141;28;20104;-90
2021/11/17 10:18:06;;;;;;;110.88;55.00;;;;;;;8.80;100.00;98155.16;5003610;28;20026;-89
2021/11/17 10:20:39;;;;;;;90.53;44.67;;;;;;;8.39;100.00;98146.34;4973186;28;20495;-89
2021/11/17 10:23:05;;;;;;;89.53;45.35;;;;;;;8.70;100.00;98159.19;4982946;28;20480;-89
2021/11/17 10:25:40;;;;;;;73.35;37.08;;;;;;;8.52;100.00;98155.50;4999480;28;20033;-89
2021/11/17 10:28:06;;;;;;;63.60;32.97;;;;;;;8.70;100.00;98154.69;5001801;28;20025;-88
2021/11/17 10:30:47;;;;;;;55.35;27.38;;;;;;;8.84;100.00;98151.41;5001968;28;20542;-89
2021/11/17 10:33:26;;;;;;;52.63;26.65;;;;;;;8.72;100.00;98122.63;5001881;28;20056;-91
2021/11/17 10:36:05;;;;;;;54.70;26.75;;;;;;;8.77;100.00;98135.78;5000976;28;20092;-90
2021/11/17 10:39:06;;;;;;;63.03;31.08;;;;;;;8.83;100.00;98136.34;4986669;28;20038;-90
2021/11/17 10:41:35;;;;;;;54.38;29.30;;;;;;;8.99;100.00;98124.03;4985089;28;20057;-90
2021/11/17 10:44:05;;;;;;;54.17;28.38;;;;;;;8.59;100.00;98070.78;5001022;28;20053;-92
2021/11/17 10:46:53;;;;;;;60.40;30.60;;;;;;;8.89;100.00;98117.38;5001595;28;20037;-89
2021/11/17 10:49:29;;;;;;;61.17;32.28;;;;;;;8.82;100.00;98078.63;4987626;28;20058;-90
2021/11/17 10:52:42;;;;;;;61.78;26.65;;;;;;;8.84;100.00;98070.53;5008399;28;20030;-91
2021/11/17 10:55:31;;;;;;;50.37;27.87;;;;;;;9.29;100.00;98099.53;5020524;28;20037;-90
2021/11/17 10:58:10;;;;;;;39.25;20.83;;;;;;;9.10;100.00;98075.50;4977232;28;20109;-91
2021/11/17 11:00:47;;;;;;;46.13;21.60;;;;;;;9.34;100.00;98103.69;5000990;28;20080;-93
2021/11/17 11:03:16;;;;;;;38.45;20.85;;;;;;;9.52;99.16;98085.91;4999885;28;20026;-91
2021/11/17 11:06:07;;;;;;;42.60;22.45;;;;;;;9.71;95.56;98097.44;5000927;28;20061;-91
2021/11/17 11:08:39;;;;;;;37.85;21.17;;;;;;;9.88;93.66;98100.09;4984467;28;20088;-92
2021/11/17 11:11:06;;;;;;;35.15;20.15;;;;;;;10.19;88.99;98110.13;5003457;28;20041;-90
2021/11/17 11:13:41;;;;;;;39.15;22.40;;;;;;;10.13;88.10;98078.34;5021115;28;20049;-91
2021/11/17 11:16:15;;;;;;;42.95;25.08;;;;;;;10.33;89.29;98108.50;5003064;28;20036;-90
2021/11/17 11:19:09;;;;;;;37.58;20.17;;;;;;;10.48;82.85;98120.19;5009116;28;20041;-90
2021/11/17 11:21:41;;;;;;;28.75;16.10;;;;;;;10.15;78.07;98093.38;5036816;28;20071;-89
2021/11/17 11:24:52;;;;;;;21.83;12.10;;;;;;;9.83;75.04;98112.84;5058234;28;20044;-90
2021/11/17 11:27:25;;;;;;;18.98;10.45;;;;;;;9.70;75.45;98090.34;5059184;28;20063;-90
2021/11/17 11:30:03;;;;;;;26.58;10.20;;;;;;;9.56;74.41;98090.16;5042877;28;20028;-89
2021/11/17 11:32:34;;;;;;;34.80;17.83;;;;;;;9.54;75.41;98100.03;5039831;28;20025;-89
2021/11/17 11:35:00;;;;;;;27.77;14.60;;;;;;;9.40;76.09;98073.16;5061467;28;20020;-89
2021/11/17 11:37:25;;;;;;;24.73;14.55;;;;;;;9.65;76.19;98087.91;5053199;28;20075;-87
2021/11/17 11:40:04;;;;;;;31.67;17.95;;;;;;;9.60;76.24;98051.66;5047972;28;20024;-91
2021/11/17 11:43:08;;;;;;;20.58;12.52;;;;;;;9.81;74.91;98063.97;5054224;28;20404;-90
2021/11/17 11:45:45;;;;;;;8.15;5.22;;;;;;;9.49;72.77;98021.97;5031059;28;20040;-90
2021/11/17 11:48:42;;;;;;;20.33;12.00;;;;;;;9.89;73.52;98064.44;5043404;28;20060;-90
2021/11/17 11:51:33;;;;;;;22.77;14.75;;;;;;;9.71;73.74;98038.66;5045113;28;20033;-89
2021/11/17 11:54:37;;;;;;;19.15;11.27;;;;;;;9.72;73.29;98048.41;5051572;28;20040;-91
2021/11/17 11:57:15;;;;;;;;;;;;;;;;;;;;;
2021/11/17 11:59:47;;;;;;;20.80;10.27;;;;;;;10.05;72.70;98086.78;5022322;28;20128;-90
2021/11/17 12:02:40;;;;;;;15.70;10.23;;;;;;;9.73;73.07;98047.44;5006077;28;20041;-90
2021/11/17 12:11:54;;;;;;;13.23;8.85;;;;;;;9.59;73.76;98055.31;5021474;28;20072;-92
2021/11/17 12:14:38;;;;;;;24.58;12.73;;;;;;;9.40;75.13;98028.66;5021190;28;20072;-92
2021/11/17 12:17:34;;;;;;;25.20;10.55;;;;;;;9.86;74.01;98080.63;5034485;28;20142;-91
2021/11/17 12:20:19;;;;;;;20.02;9.77;;;;;;;9.45;73.87;98004.38;5004739;28;20042;-90
2021/11/17 12:22:53;;;;;;;15.07;10.55;;;;;;;9.78;73.67;98024.06;5026146;28;20042;-89
2021/11/17 12:25:43;;;;;;;16.75;9.88;;;;;;;9.45;72.41;97986.53;4997207;28;20033;-89
2021/11/17 12:28:27;;;;;;;18.52;10.05;;;;;;;9.63;73.58;98039.03;5038948;28;20424;-90
2021/11/17 12:31:10;;;;;;;15.23;9.10;;;;;;;9.35;73.24;97989.78;5058478;28;20012;-90
2021/11/17 12:37:31;;;;;;;23.75;12.63;;;;;;;9.81;73.63;98040.75;5054330;28;20094;-91
2021/11/17 12:40:37;;;;;;;22.50;12.60;;;;;;;9.43;74.37;98012.47;5047655;28;20030;-91
2021/11/17 12:43:20;;;;;;;22.90;12.70;;;;;;;9.67;74.48;98047.75;5082472;28;20043;-89
2021/11/17 12:46:26;;;;;;;18.13;11.32;;;;;;;9.74;74.36;98054.53;5072226;28;20009;-92
2021/11/17 12:49:20;;;;;;;14.77;9.13;;;;;;;9.68;73.54;98065.53;5083487;28;20029;-90
2021/11/17 12:52:00;;;;;;;8.48;6.07;;;;;;;9.34;73.72;98025.41;5054282;28;20047;-89
2021/11/17 12:54:40;;;;;;;35.53;19.75;;;;;;;9.54;74.59;98047.50;5052049;28;20699;-89
2021/11/17 12:57:22;;;;;;;;;;;;;;;;;;;;;
2021/11/17 13:00:10;;;;;;;30.55;12.32;;;;;;;9.56;73.27;98018.06;5061711;28;20104;-91
2021/11/17 13:02:47;;;;;;;15.38;9.77;;;;;;;9.59;73.25;98020.59;5061487;28;20021;-92
2021/11/17 13:05:37;;;;;;;18.10;11.15;;;;;;;9.57;73.75;98052.69;5048936;28;20066;-92
2021/11/17 13:08:05;;;;;;;20.63;13.18;;;;;;;9.47;74.51;98045.22;5049609;28;20685;-91
2021/11/17 13:11:08;;;;;;;30.92;16.02;;;;;;;9.38;75.71;98037.69;5063110;28;20079;-93
2021/11/17 13:13:59;;;;;;;28.45;14.55;;;;;;;9.21;75.23;98010.00;5070788;28;20031;-91
2021/11/17 13:17:24;;;;;;;19.13;11.98;;;;;;;9.48;75.08;98069.16;5061107;28;20056;-90
2021/11/17 13:23:45;;;;;;;26.38;14.25;;;;;;;9.32;74.66;98030.81;4969071;29;20041;-90
2021/11/17 13:26:20;;;;;;;23.30;15.07;;;;;;;9.45;75.43;98057.78;4949458;29;20450;-89
2021/11/17 13:28:51;;;;;;;20.05;12.00;;;;;;;9.15;76.29;98018.31;5032696;28;20040;-92
2021/11/17 13:31:37;;;;;;;26.27;14.93;;;;;;;9.31;76.41;98053.13;5051764;28;20099;-91
2021/11/17 13:34:38;;;;;;;18.98;10.52;;;;;;;9.42;76.43;98047.25;5035110;28;20132;-91
2021/11/17 13:37:34;;;;;;;12.90;7.75;;;;;;;9.21;76.04;98044.69;5039344;28;20087;-92
2021/11/17 13:40:24;;;;;;;;;;;;;;;;;;;;;
2021/11/17 13:43:03;;;;;;;25.02;12.85;;;;;;;9.16;77.36;98045.88;5072229;28;20085;-91
2021/11/17 13:45:39;;;;;;;22.15;13.43;;;;;;;9.09;77.09;98029.28;5056829;28;20029;-92
2021/11/17 13:48:07;;;;;;;19.85;9.65;;;;;;;8.96;76.69;97995.25;5064392;28;20029;-91
2021/11/17 13:50:36;;;;;;;23.85;15.23;;;;;;;8.71;76.84;97963.56;5059759;28;20054;-90
2021/11/17 13:53:08;;;;;;;39.30;22.60;;;;;;;9.01;77.54;98015.41;5061928;28;20013;-90
2021/11/17 13:55:41;;;;;;;42.22;23.02;;;;;;;9.27;76.84;98039.06;5073317;28;20013;-93
2021/11/17 13:58:11;;;;;;;24.00;13.80;;;;;;;9.15;76.10;98006.75;5066643;28;20043;-90
2021/11/17 14:00:41;;;;;;;28.70;15.98;;;;;;;9.38;76.77;98035.00;5057976;28;20029;-90
2021/11/17 14:03:10;;;;;;;29.95;14.88;;;;;;;9.15;76.39;98001.41;5048051;28;20009;-90
2021/11/17 14:05:52;;;;;;;24.70;15.05;;;;;;;9.36;77.31;98039.53;5064169;28;20033;-91
2021/11/17 14:08:44;;;;;;;26.80;15.82;;;;;;;9.10;76.35;97998.13;5086083;28;20036;-90
2021/11/17 14:11:29;;;;;;;27.50;14.20;;;;;;;8.98;76.08;97980.88;5060900;28;20043;-90
2021/11/17 14:15:03;;;;;;;22.27;12.90;;;;;;;9.24;76.03;98041.88;5089688;28;20088;-91
2021/11/17 14:17:01;;;;;;;52.67;26.83;;;;;;;9.10;75.83;98008.81;5087311;28;20032;-90
2021/11/17 14:19:34;;;;;;;47.20;25.30;;;;;;;9.16;75.31;98017.38;5061449;28;20008;-91
2021/11/17 14:22:36;;;;;;;48.03;23.80;;;;;;;9.11;75.84;97995.38;5035483;28;20037;-92
2021/11/17 14:39:48;;;;;;;78.45;38.35;;;;;;;9.34;79.04;98044.97;4919559;29;20044;-91
2021/11/17 14:52:53;;;;;;;;;;;;;;;;;;;;;
2021/11/17 15:14:27;;;;;;;29.45;17.05;;;;;;;8.95;84.68;98037.06;4919993;29;20136;-92
2021/11/17 15:16:53;;;;;;;52.83;24.35;;;;;;;8.87;84.95;98020.56;4943677;28;20058;-78
2021/11/17 15:19:19;;;;;;;42.20;20.52;;;;;;;8.99;86.11;98037.78;4939672;28;20035;-77
2021/11/17 15:21:45;;;;;;;43.45;24.15;;;;;;;8.95;86.37;98042.41;5016204;28;20102;-77
2021/11/17 15:24:11;;;;;;;52.92;30.77;;;;;;;8.87;87.19;98031.22;5002885;28;20033;-78
2021/11/17 15:26:53;;;;;;;51.33;29.13;;;;;;;8.83;87.57;98032.31;5007084;28;20032;-78
2021/11/17 15:29:20;;;;;;;60.83;31.00;;;;;;;8.86;88.39;98040.16;5045787;28;20469;-86
2021/11/17 15:31:45;;;;;;;51.40;29.70;;;;;;;8.80;88.95;98037.78;5019552;28;20029;-82
2021/11/17 15:34:11;;;;;;;63.10;32.80;;;;;;;8.80;88.73;98042.28;5007924;28;20507;-83
2021/11/17 15:36:37;;;;;;;70.20;35.75;;;;;;;8.74;92.08;98043.41;5000627;28;20035;-76
2021/11/17 15:39:04;;;;;;;68.47;36.63;;;;;;;8.68;91.66;98043.69;5022242;28;20516;-75
2021/11/17 15:41:31;;;;;;;78.97;39.67;;;;;;;8.57;89.05;98030.00;5014936;28;20412;-78
2021/11/17 15:43:57;;;;;;;79.75;37.38;;;;;;;8.52;90.00;98032.03;5003208;28;20028;-77
2021/11/17 15:46:23;;;;;;;55.65;32.33;;;;;;;8.43;89.16;98032.47;5002585;28;20031;-76
2021/11/17 15:48:49;;;;;;;60.28;33.75;;;;;;;8.36;89.65;98050.53;5023301;28;20124;-76
2021/11/17 15:51:18;;;;;;;93.55;44.30;;;;;;;8.24;91.61;98044.84;5013483;28;20024;-75